Hughesville, Maryland
Current Conditions -  °F | °C
As of 10:39 PM on Saturday 22 Nov 2014 (Local Time) from K2W6 Reporting Station
Clear Clear  
Wind Chill: 37°   Ceiling: Unl
Heat Index: 41°   Visibility: 10mi
Dew Point: 18°   Wind: 6mph
Humidity: 39%   Direction: 210°SSW
Pressure: 30.32"   Gusts: NA
Location:  38.53°N, 76.78°W
Report Text: K2W6 230339Z AUTO 21005KT 10SM CLR 05/M08 A3032 RMK AO1
Loading
Personal Weather Stations






























Interactive Weather Map New forecast layout! Learn more

10-Day Weather Forecast

Advertisements
Track Severe Weather on mobile